Time;durP1;ratioP1;P1;durP2;ratioP2;P2;SDS_P1;SDS_P2;PMS_P1;PMS_P2;Temp;Humidity;BMP_temperature;BMP_pressure;BME280_temperature;BME280_humidity;BME280_pressure;Samples;Min_cycle;Max_cycle;Signal;HPM_P1;HPM_P2
2023/08/21 00:00:13;;;;;;;2.22;1.60;;;;;;;25.91;71.88;99915.56;336407;28;5176;-76
2023/08/21 00:00:25;;;;;;;2.08;1.75;;;;;;;25.90;72.34;99907.75;337910;28;4580;-76
2023/08/21 00:00:36;;;;;;;2.22;1.77;;;;;;;25.89;72.07;99906.84;335751;28;19115;-76
2023/08/21 00:00:49;;;;;;;2.47;1.80;;;;;;;25.90;72.21;99913.06;333655;28;5518;-76
2023/08/21 00:01:01;;;;;;;2.55;1.75;;;;;;;25.88;72.01;99915.81;336056;28;12024;-76
2023/08/21 00:01:14;;;;;;;3.30;1.80;;;;;;;25.88;72.24;99915.00;338219;28;4671;-76
2023/08/21 00:01:26;;;;;;;3.20;1.80;;;;;;;25.88;72.10;99910.50;335977;28;16307;-76
2023/08/21 00:01:38;;;;;;;2.63;1.70;;;;;;;25.88;71.64;99915.00;338595;28;4545;-76
2023/08/21 00:01:50;;;;;;;2.30;1.70;;;;;;;25.87;72.08;99908.81;338781;28;4556;-76
2023/08/21 00:02:02;;;;;;;2.42;1.77;;;;;;;25.89;71.75;99912.16;335876;28;18082;-76
2023/08/21 00:02:14;;;;;;;2.30;1.88;;;;;;;25.88;72.06;99915.00;333316;28;4836;-76
2023/08/21 00:02:27;;;;;;;1.98;1.73;;;;;;;25.88;71.68;99915.81;336598;28;5224;-76
2023/08/21 00:02:40;;;;;;;2.25;1.70;;;;;;;25.87;72.15;99915.97;338935;28;4548;-76
2023/08/21 00:02:52;;;;;;;2.83;1.85;;;;;;;25.86;71.90;99916.97;336480;28;17725;-76
2023/08/21 00:03:04;;;;;;;3.08;1.80;;;;;;;25.87;71.88;99907.97;339085;28;4661;-76
2023/08/21 00:03:16;;;;;;;2.63;1.70;;;;;;;25.86;71.89;99916.97;336586;28;12250;-76
2023/08/21 00:03:29;;;;;;;1.80;1.55;;;;;;;25.86;72.15;99911.63;339085;28;4738;-76
2023/08/21 00:03:42;;;;;;;2.08;1.65;;;;;;;25.86;72.31;99907.13;336754;28;11841;-76
2023/08/21 00:03:54;;;;;;;2.65;1.85;;;;;;;25.86;72.53;99911.63;336415;28;18057;-76
2023/08/21 00:04:06;;;;;;;2.63;1.80;;;;;;;25.85;72.26;99915.25;331810;28;4773;-76
2023/08/21 00:04:18;;;;;;;2.45;1.67;;;;;;;25.84;71.95;99911.78;338390;28;18473;-76
2023/08/21 00:04:31;;;;;;;2.55;1.80;;;;;;;25.83;71.90;99917.22;338911;28;5084;-76
2023/08/21 00:04:43;;;;;;;2.50;1.75;;;;;;;25.84;71.92;99919.75;336141;28;18592;-76
2023/08/21 00:04:55;;;;;;;2.38;1.70;;;;;;;25.83;72.50;99911.91;339086;28;4515;-76
2023/08/21 00:05:07;;;;;;;2.20;1.77;;;;;;;25.83;72.42;99920.72;338470;28;10622;-76
2023/08/21 00:05:19;;;;;;;2.40;1.90;;;;;;;25.84;72.18;99919.75;331506;28;18193;-76
2023/08/21 00:05:31;;;;;;;2.42;1.88;;;;;;;25.82;72.42;99911.06;339244;28;5286;-76
2023/08/21 00:05:43;;;;;;;2.35;1.88;;;;;;;25.84;72.36;99914.44;336517;28;15969;-76
2023/08/21 00:05:55;;;;;;;1.83;1.70;;;;;;;25.84;72.04;99916.25;339104;28;4541;-76
2023/08/21 00:06:07;;;;;;;1.63;1.48;;;;;;;25.84;71.89;99908.28;338984;28;4669;-76
2023/08/21 00:06:19;;;;;;;1.85;1.45;;;;;;;25.84;72.20;99914.44;336064;28;18268;-76
2023/08/21 00:06:31;;;;;;;2.28;1.60;;;;;;;25.85;72.28;99909.94;338652;28;4593;-76
2023/08/21 00:06:43;;;;;;;2.67;1.70;;;;;;;25.84;72.31;99914.44;338109;28;18115;-76
2023/08/21 00:06:55;;;;;;;2.58;1.80;;;;;;;25.84;72.06;99918.94;332540;28;18460;-76
2023/08/21 00:07:09;;;;;;;2.30;1.80;;;;;;;25.82;72.16;99919.06;338635;28;5427;-76
2023/08/21 00:07:21;;;;;;;2.90;1.98;;;;;;;25.82;72.40;99911.06;336071;28;18219;-76
2023/08/21 00:07:33;;;;;;;2.67;1.83;;;;;;;25.81;72.46;99909.38;337136;28;4602;-76
2023/08/21 00:07:46;;;;;;;1.95;1.70;;;;;;;25.81;72.66;99909.38;334735;28;19292;-76
2023/08/21 00:07:58;;;;;;;2.40;1.67;;;;;;;25.81;72.61;99914.69;337373;28;5596;-76
2023/08/21 00:08:10;;;;;;;2.85;1.73;;;;;;;25.79;72.53;99911.34;334686;28;18238;-76
2023/08/21 00:08:22;;;;;;;4.28;1.80;;;;;;;25.77;72.60;99918.63;337150;28;4695;-76
2023/08/21 00:08:34;;;;;;;3.60;1.70;;;;;;;25.76;72.67;99914.31;332469;28;4681;-76
2023/08/21 00:08:46;;;;;;;3.63;1.80;;;;;;;25.75;72.40;99915.28;334591;28;19320;-76
2023/08/21 00:08:58;;;;;;;3.75;1.67;;;;;;;25.76;72.50;99916.97;337365;28;5707;-76
2023/08/21 00:09:10;;;;;;;3.80;1.80;;;;;;;25.79;72.65;99922.00;335219;28;19212;-76
2023/08/21 00:09:22;;;;;;;2.95;1.90;;;;;;;25.79;72.59;99913.16;338674;28;4496;-76
2023/08/21 00:09:34;;;;;;;2.37;1.80;;;;;;;25.80;72.33;99914.88;338688;28;5410;-76
2023/08/21 00:09:46;;;;;;;2.42;1.60;;;;;;;25.80;72.52;99910.38;335978;28;18435;-76
2023/08/21 00:09:58;;;;;;;2.63;1.60;;;;;;;25.80;72.66;99912.19;338906;28;4917;-76
2023/08/21 00:10:12;;;;;;;2.58;1.70;;;;;;;25.79;72.58;99911.34;337772;28;4675;-76
2023/08/21 00:10:24;;;;;;;2.20;1.90;;;;;;;25.79;72.32;99916.66;336329;28;18000;-76
2023/08/21 00:10:40;;;;;;;2.25;1.85;;;;;;;25.79;72.51;99908.69;336490;28;5545;-76
2023/08/21 00:10:52;;;;;;;2.35;1.80;;;;;;;25.80;72.23;99912.19;336358;28;18105;-76
2023/08/21 00:11:04;;;;;;;2.92;1.80;;;;;;;25.79;72.22;99906.00;338863;28;5220;-76
2023/08/21 00:11:16;;;;;;;2.67;1.70;;;;;;;25.78;72.54;99912.34;336122;28;19118;-76
2023/08/21 00:11:28;;;;;;;2.25;1.80;;;;;;;25.78;72.42;99909.69;339118;28;4630;-76
2023/08/21 00:11:40;;;;;;;2.22;1.80;;;;;;;25.77;72.71;99913.31;336896;28;5722;-76
2023/08/21 00:11:52;;;;;;;2.30;1.90;;;;;;;25.75;72.86;99917.94;339167;28;5412;-76
2023/08/21 00:12:05;;;;;;;2.75;1.90;;;;;;;25.73;72.82;99914.56;338597;28;4659;-76
2023/08/21 00:12:17;;;;;;;2.70;1.73;;;;;;;25.70;73.06;99913.03;335842;28;19188;-76
2023/08/21 00:12:29;;;;;;;2.97;1.70;;;;;;;25.71;73.64;99909.38;338394;28;4570;-76
2023/08/21 00:12:41;;;;;;;3.17;1.80;;;;;;;25.69;73.41;99903.34;336257;28;8642;-76
2023/08/21 00:12:53;;;;;;;2.35;1.83;;;;;;;25.67;73.25;99907.16;338551;28;5102;-76
2023/08/21 00:13:05;;;;;;;2.78;2.00;;;;;;;25.65;73.22;99903.78;338343;28;4935;-76
2023/08/21 00:13:18;;;;;;;2.53;1.88;;;;;;;25.64;73.19;99902.97;336083;28;18397;-76
2023/08/21 00:13:30;;;;;;;2.15;1.55;;;;;;;25.63;73.29;99911.91;338838;28;4721;-76
2023/08/21 00:13:44;;;;;;;2.05;1.50;;;;;;;25.62;73.17;99915.56;335929;28;18446;-76
2023/08/21 00:13:56;;;;;;;2.97;1.90;;;;;;;25.62;73.63;99914.72;337349;28;5094;-76
2023/08/21 00:14:08;;;;;;;2.83;1.90;;;;;;;25.62;73.21;99914.72;337667;28;18298;-76
2023/08/21 00:14:20;;;;;;;2.58;1.98;;;;;;;25.62;73.29;99915.56;339253;28;5160;-76
2023/08/21 00:14:32;;;;;;;2.30;1.75;;;;;;;25.62;73.29;99912.91;334456;28;5424;-76
2023/08/21 00:14:44;;;;;;;2.42;1.88;;;;;;;25.62;73.50;99914.72;339334;28;4617;-76
2023/08/21 00:14:57;;;;;;;2.45;1.73;;;;;;;25.60;73.35;99911.38;336461;28;5227;-76
2023/08/21 00:15:09;;;;;;;2.50;1.80;;;;;;;25.60;73.25;99911.38;338894;28;4541;-76
2023/08/21 00:15:21;;;;;;;2.28;1.95;;;;;;;25.59;73.13;99915.84;336647;28;5494;-76
2023/08/21 00:15:34;;;;;;;2.10;1.90;;;;;;;25.59;73.39;99915.00;339009;28;4611;-76
2023/08/21 00:15:46;;;;;;;1.95;1.80;;;;;;;25.60;73.29;99914.03;338879;28;4670;-76
2023/08/21 00:15:58;;;;;;;1.80;1.70;;;;;;;25.61;73.02;99910.38;336515;28;11606;-76
2023/08/21 00:16:13;;;;;;;1.98;1.73;;;;;;;25.61;73.35;99913.03;337080;28;17786;-76
2023/08/21 00:16:26;;;;;;;2.42;1.90;;;;;;;25.62;73.37;99920.06;336328;28;17931;-76
2023/08/21 00:16:38;;;;;;;2.40;1.80;;;;;;;25.59;73.85;99907.00;336256;28;18785;-76
2023/08/21 00:16:50;;;;;;;2.25;1.73;;;;;;;25.57;73.66;99916.97;339009;28;5221;-76
2023/08/21 00:17:03;;;;;;;2.25;1.77;;;;;;;25.55;73.88;99913.59;336149;28;16259;-76
2023/08/21 00:17:15;;;;;;;3.20;1.75;;;;;;;25.57;73.68;99911.63;339002;28;4658;-76
2023/08/21 00:17:27;;;;;;;3.13;1.75;;;;;;;25.57;73.68;99916.97;337104;28;5331;-76
2023/08/21 00:17:39;;;;;;;2.55;1.63;;;;;;;25.59;73.48;99915.00;338802;28;5273;-76
2023/08/21 00:17:52;;;;;;;2.00;1.60;;;;;;;25.60;73.74;99914.03;338955;28;5774;-76
2023/08/21 00:18:04;;;;;;;2.05;1.60;;;;;;;25.59;73.73;99915.00;335833;28;18187;-75
2023/08/21 00:18:16;;;;;;;2.03;1.60;;;;;;;25.59;73.50;99912.34;338672;28;4563;-76
2023/08/21 00:18:28;;;;;;;2.00;1.58;;;;;;;25.59;73.38;99917.66;336292;28;18134;-76
2023/08/21 00:18:40;;;;;;;2.08;1.63;;;;;;;25.59;73.62;99918.50;339118;28;4668;-76
2023/08/21 00:18:53;;;;;;;2.13;1.70;;;;;;;25.59;73.34;99915.84;338922;28;4680;-76
2023/08/21 00:19:05;;;;;;;2.20;1.77;;;;;;;25.59;73.47;99915.00;336394;28;16423;-76
2023/08/21 00:19:17;;;;;;;2.22;1.88;;;;;;;25.58;73.18;99913.34;338666;28;4597;-76
2023/08/21 00:19:29;;;;;;;2.03;1.80;;;;;;;25.58;73.35;99913.34;336580;28;16341;-76
2023/08/21 00:19:41;;;;;;;1.83;1.52;;;;;;;25.56;73.54;99912.63;338932;28;5513;-76
2023/08/21 00:19:53;;;;;;;2.70;2.00;;;;;;;25.54;73.76;99911.94;336345;28;13607;-76
2023/08/21 00:20:09;;;;;;;3.00;2.00;;;;;;;25.52;74.01;99917.41;338951;28;5113;-76
2023/08/21 00:20:21;;;;;;;2.50;1.77;;;;;;;25.51;73.83;99913.91;336103;28;18385;-77
2023/08/21 00:20:33;;;;;;;1.95;1.63;;;;;;;25.51;73.67;99919.22;339022;28;5583;-76
2023/08/21 00:20:45;;;;;;;1.98;1.65;;;;;;;25.51;73.69;99913.91;334916;28;18249;-75
2023/08/21 00:20:57;;;;;;;2.13;1.60;;;;;;;25.51;73.26;99913.03;337833;28;5573;-76
2023/08/21 00:21:09;;;;;;;2.20;1.63;;;;;;;25.50;73.48;99912.19;335161;28;11553;-76
2023/08/21 00:21:21;;;;;;;2.55;1.60;;;;;;;25.48;73.54;99911.50;337609;28;4673;-76
2023/08/21 00:21:33;;;;;;;2.50;1.73;;;;;;;25.47;73.47;99911.63;337639;28;4676;-76
2023/08/21 00:21:45;;;;;;;2.00;1.67;;;;;;;25.48;73.57;99913.31;335521;28;13185;-76
2023/08/21 00:21:57;;;;;;;1.60;1.40;;;;;;;25.47;73.59;99912.50;338828;28;5391;-76
2023/08/21 00:22:09;;;;;;;1.88;1.30;;;;;;;25.46;73.91;99910.81;338833;28;5214;-76
2023/08/21 00:22:21;;;;;;;3.63;1.45;;;;;;;25.46;73.71;99913.47;336273;28;19041;-76
2023/08/21 00:22:33;;;;;;;3.85;1.52;;;;;;;25.46;73.90;99918.78;338902;28;4533;-76
2023/08/21 00:22:45;;;;;;;2.63;1.55;;;;;;;25.45;73.82;99914.44;336045;28;12340;-76
2023/08/21 00:22:57;;;;;;;2.25;1.70;;;;;;;25.46;73.66;99910.81;339099;28;4640;-75
2023/08/21 00:23:09;;;;;;;2.72;1.83;;;;;;;25.44;73.88;99912.75;338847;28;5259;-76
2023/08/21 00:23:21;;;;;;;3.53;1.77;;;;;;;25.45;74.12;99914.44;336139;28;18140;-76
2023/08/21 00:23:33;;;;;;;3.40;1.75;;;;;;;25.44;74.22;99915.41;338843;28;5520;-76
2023/08/21 00:23:46;;;;;;;2.70;1.70;;;;;;;25.44;74.36;99912.75;335921;28;18157;-76
2023/08/21 00:23:58;;;;;;;2.47;1.60;;;;;;;25.44;73.99;99915.41;339356;28;5498;-76
2023/08/21 00:24:10;;;;;;;2.13;1.50;;;;;;;25.45;74.29;99918.91;336157;28;16022;-76
2023/08/21 00:24:22;;;;;;;2.40;1.67;;;;;;;25.44;74.06;99915.41;338935;28;5466;-75
2023/08/21 00:24:34;;;;;;;2.60;1.77;;;;;;;25.44;73.95;99911.94;339206;28;4546;-76
2023/08/21 00:24:46;;;;;;;2.72;1.70;;;;;;;25.42;74.08;99914.72;335516;28;18294;-76
2023/08/21 00:24:58;;;;;;;2.53;1.60;;;;;;;25.42;73.88;99909.41;336957;28;17358;-76
2023/08/21 00:25:10;;;;;;;2.30;1.50;;;;;;;25.41;74.05;99912.19;339488;28;5230;-76
2023/08/21 00:25:22;;;;;;;1.92;1.52;;;;;;;25.41;74.08;99913.03;336369;28;17727;-76
2023/08/21 00:25:34;;;;;;;1.85;1.65;;;;;;;25.41;74.35;99907.69;339370;28;6381;-76
2023/08/21 00:25:47;;;;;;;1.88;1.67;;;;;;;25.38;73.93;99910.66;336616;28;18275;-76
2023/08/21 00:25:59;;;;;;;2.13;1.50;;;;;;;25.39;74.23;99909.66;338925;28;4689;-75
2023/08/21 00:26:12;;;;;;;2.47;1.67;;;;;;;25.40;74.48;99915.84;338060;28;4772;-76
2023/08/21 00:26:24;;;;;;;2.75;1.85;;;;;;;25.39;74.33;99909.66;332744;28;17388;-76
2023/08/21 00:26:36;;;;;;;3.33;1.90;;;;;;;25.39;73.97;99914.16;339254;28;4648;-76
2023/08/21 00:26:48;;;;;;;3.28;1.63;;;;;;;25.38;74.26;99913.31;335764;28;18102;-76
2023/08/21 00:27:00;;;;;;;2.63;1.60;;;;;;;25.37;73.91;99916.09;339416;28;4602;-76
2023/08/21 00:27:12;;;;;;;2.40;1.50;;;;;;;25.37;73.93;99914.28;335900;28;19197;-76
2023/08/21 00:27:24;;;;;;;2.60;1.45;;;;;;;25.36;73.88;99909.13;337440;28;4505;-76
2023/08/21 00:27:36;;;;;;;2.50;1.50;;;;;;;25.36;73.93;99909.97;337774;28;4575;-76
2023/08/21 00:27:48;;;;;;;2.42;1.60;;;;;;;25.33;73.77;99910.22;329733;28;19306;-76
2023/08/21 00:28:00;;;;;;;2.28;1.63;;;;;;;25.32;74.97;99908.56;337441;28;4505;-76
2023/08/21 00:28:13;;;;;;;2.70;1.70;;;;;;;25.29;75.22;99908.81;335089;28;17987;-76
2023/08/21 00:28:26;;;;;;;2.38;1.70;;;;;;;25.28;74.80;99905.31;337706;28;5265;-76
2023/08/21 00:28:38;;;;;;;2.35;1.70;;;;;;;25.27;74.32;99910.78;334740;28;18198;-76
2023/08/21 00:28:50;;;;;;;3.17;1.70;;;;;;;25.28;74.77;99912.47;337586;28;4496;-76
2023/08/21 00:29:02;;;;;;;3.00;1.60;;;;;;;25.28;75.21;99909.81;337493;28;15799;-76
2023/08/21 00:29:14;;;;;;;2.38;1.80;;;;;;;25.27;75.43;99908.13;335410;28;18204;-76
2023/08/21 00:29:27;;;;;;;2.10;1.80;;;;;;;25.26;75.08;99907.28;338424;28;4599;-76
2023/08/21 00:29:39;;;;;;;2.22;1.80;;;;;;;25.25;75.54;99910.06;336566;28;18244;-76
2023/08/21 00:29:51;;;;;;;2.72;1.90;;;;;;;25.23;75.29;99909.38;339377;28;4676;-76
2023/08/21 00:30:03;;;;;;;2.65;1.83;;;;;;;25.25;75.31;99904.75;336562;28;19059;-75
2023/08/21 00:30:15;;;;;;;2.40;1.70;;;;;;;25.24;75.33;99903.09;339327;28;5822;-76
2023/08/21 00:30:27;;;;;;;2.50;1.70;;;;;;;25.25;75.19;99907.41;336685;28;11499;-76
2023/08/21 00:30:39;;;;;;;2.47;1.80;;;;;;;25.26;75.43;99909.94;334926;28;5770;-76
2023/08/21 00:31:00;;;;;;;2.33;1.80;;;;;;;25.25;76.04;99904.75;338960;28;5804;-76
2023/08/21 00:31:12;;;;;;;3.65;1.80;;;;;;;25.24;75.47;99905.75;336383;28;17337;-76
2023/08/21 00:31:24;;;;;;;3.85;1.80;;;;;;;25.23;75.64;99904.06;336373;28;18154;-76
2023/08/21 00:31:36;;;;;;;3.40;1.90;;;;;;;25.21;75.92;99906.88;339261;28;5505;-76
2023/08/21 00:31:48;;;;;;;2.78;2.00;;;;;;;25.21;75.80;99908.63;336687;28;11647;-76
2023/08/21 00:32:00;;;;;;;2.85;2.03;;;;;;;25.23;75.88;99906.72;339310;28;5213;-76
2023/08/21 00:32:12;;;;;;;2.58;1.83;;;;;;;25.21;75.73;99900.66;339377;28;5400;-76
2023/08/21 00:32:24;;;;;;;2.42;1.70;;;;;;;25.21;76.24;99905.97;336969;28;5312;-76
2023/08/21 00:32:36;;;;;;;2.55;1.83;;;;;;;25.20;75.98;99907.81;339352;28;5264;-76
2023/08/21 00:32:48;;;;;;;3.60;1.98;;;;;;;25.23;75.63;99904.06;336696;28;10838;-76
2023/08/21 00:33:01;;;;;;;3.38;2.00;;;;;;;25.23;75.85;99909.38;339436;28;4607;-76
2023/08/21 00:33:13;;;;;;;4.40;2.05;;;;;;;25.23;75.53;99904.91;339289;28;4651;-76
2023/08/21 00:33:25;;;;;;;4.05;1.90;;;;;;;25.25;75.79;99905.63;336614;28;19132;-76
2023/08/21 00:33:37;;;;;;;2.17;1.73;;;;;;;25.26;75.84;99917.09;334595;28;4773;-76
2023/08/21 00:33:49;;;;;;;2.33;1.75;;;;;;;25.26;75.77;99906.44;336560;28;11969;-76
2023/08/21 00:34:01;;;;;;;3.35;1.75;;;;;;;25.26;75.65;99904.63;339465;28;4514;-76
2023/08/21 00:34:13;;;;;;;3.25;1.70;;;;;;;25.28;75.37;99907.16;339190;28;4717;-76
2023/08/21 00:34:25;;;;;;;2.40;1.60;;;;;;;25.29;75.11;99904.34;335801;28;18228;-76
2023/08/21 00:34:37;;;;;;;2.20;1.63;;;;;;;25.31;75.08;99904.19;338897;28;5223;-76
2023/08/21 00:34:49;;;;;;;2.33;1.65;;;;;;;25.33;75.23;99909.38;336259;28;16461;-76
2023/08/21 00:35:01;;;;;;;2.63;1.83;;;;;;;25.34;75.23;99911.09;338826;28;4636;-76
2023/08/21 00:35:13;;;;;;;4.38;1.83;;;;;;;25.34;75.08;99905.75;334442;28;4639;-76
2023/08/21 00:35:25;;;;;;;3.65;1.73;;;;;;;25.34;75.28;99901.28;336145;28;16611;-76
2023/08/21 00:35:37;;;;;;;3.00;1.70;;;;;;;25.34;75.17;99906.59;339210;28;5225;-76
2023/08/21 00:35:49;;;;;;;2.00;1.77;;;;;;;25.34;74.88;99906.59;338692;28;4635;-76
2023/08/21 00:36:01;;;;;;;2.90;1.75;;;;;;;25.34;74.72;99914.56;334759;28;18082;-76
2023/08/21 00:36:13;;;;;;;2.85;1.73;;;;;;;25.35;74.84;99908.25;337546;28;4987;-76
2023/08/21 00:36:25;;;;;;;2.60;1.63;;;;;;;25.36;74.60;99906.47;335108;28;5572;-75
2023/08/21 00:36:37;;;;;;;2.22;1.70;;;;;;;25.35;74.56;99908.25;338675;28;4558;-76
2023/08/21 00:36:49;;;;;;;2.15;1.70;;;;;;;25.35;74.49;99908.25;334276;28;5438;-76
2023/08/21 00:37:01;;;;;;;2.13;1.75;;;;;;;25.35;74.99;99908.25;336294;28;18219;-76
2023/08/21 00:37:13;;;;;;;2.20;1.70;;;;;;;25.36;74.59;99907.28;339037;28;4540;-76
2023/08/21 00:37:25;;;;;;;2.22;1.65;;;;;;;25.35;74.57;99908.25;339053;28;5281;-76
2023/08/21 00:37:37;;;;;;;2.43;1.70;;;;;;;25.36;74.90;99909.97;336303;28;18298;-76
2023/08/21 00:37:49;;;;;;;2.33;1.80;;;;;;;25.36;74.71;99909.97;338975;28;4535;-76
2023/08/21 00:38:01;;;;;;;3.38;1.60;;;;;;;25.35;75.10;99907.44;336152;28;18462;-76
2023/08/21 00:38:13;;;;;;;4.22;1.80;;;;;;;25.36;75.43;99907.28;338810;28;5361;-76
2023/08/21 00:38:26;;;;;;;3.72;1.80;;;;;;;25.36;75.13;99901.97;332743;28;5228;-76
2023/08/21 00:38:38;;;;;;;3.40;1.80;;;;;;;25.37;75.16;99911.63;334516;28;18323;-76
2023/08/21 00:38:50;;;;;;;2.70;1.70;;;;;;;25.36;75.68;99909.13;337759;28;4617;-76
2023/08/21 00:39:02;;;;;;;2.42;1.70;;;;;;;25.36;75.30;99904.63;335065;28;16247;-76
2023/08/21 00:39:14;;;;;;;2.45;1.70;;;;;;;25.37;75.43;99908.13;337270;28;5300;-76
2023/08/21 00:39:26;;;;;;;2.67;2.08;;;;;;;25.34;75.05;99903.94;337619;28;4539;-76
2023/08/21 00:39:38;;;;;;;2.22;1.92;;;;;;;25.35;74.84;99908.25;335024;28;18107;-76
2023/08/21 00:39:50;;;;;;;2.40;1.70;;;;;;;25.35;75.05;99902.09;337491;28;5229;-76
2023/08/21 00:40:03;;;;;;;2.72;1.83;;;;;;;25.34;75.16;99901.28;335269;28;5212;-76
2023/08/21 00:40:15;;;;;;;4.45;1.85;;;;;;;25.35;75.04;99908.25;338124;28;4544;-76
2023/08/21 00:40:27;;;;;;;3.88;1.60;;;;;;;25.35;74.99;99902.94;336437;28;11490;-76
2023/08/21 00:40:39;;;;;;;2.75;1.48;;;;;;;25.35;75.01;99907.44;339565;28;4848;-76
2023/08/21 00:40:51;;;;;;;1.90;1.60;;;;;;;25.34;75.01;99906.59;339329;28;4665;-76
2023/08/21 00:41:03;;;;;;;1.67;1.58;;;;;;;25.32;75.02;99908.56;336298;28;17896;-76
2023/08/21 00:41:15;;;;;;;1.90;1.70;;;;;;;25.31;75.33;99906.84;339426;28;5417;-76
2023/08/21 00:41:27;;;;;;;2.47;1.88;;;;;;;25.31;75.31;99901.53;339093;28;4658;-76
2023/08/21 00:41:39;;;;;;;2.70;1.90;;;;;;;25.29;75.97;99904.34;336746;28;18233;-76
2023/08/21 00:41:51;;;;;;;3.20;1.90;;;;;;;25.29;75.58;99914.13;339412;28;5250;-76
2023/08/21 00:42:03;;;;;;;2.70;1.73;;;;;;;25.29;75.31;99906.16;336674;28;18002;-76
2023/08/21 00:42:15;;;;;;;2.22;1.70;;;;;;;25.29;75.22;99908.81;338937;28;4530;-76
2023/08/21 00:42:27;;;;;;;1.98;1.60;;;;;;;25.30;75.55;99899.88;338947;28;4672;-76
2023/08/21 00:42:39;;;;;;;2.22;1.60;;;;;;;25.31;75.09;99907.72;336124;28;19764;-76
2023/08/21 00:42:52;;;;;;;2.38;1.60;;;;;;;25.31;75.31;99901.53;339196;28;5173;-76
2023/08/21 00:43:04;;;;;;;3.60;1.60;;;;;;;25.31;74.92;99904.19;333950;28;4777;-76
2023/08/21 00:43:16;;;;;;;3.15;1.50;;;;;;;25.31;75.04;99902.41;339217;28;4654;-76
2023/08/21 00:43:28;;;;;;;2.88;1.48;;;;;;;25.33;74.96;99906.72;338854;28;12106;-76
2023/08/21 00:43:40;;;;;;;2.35;1.58;;;;;;;25.32;75.03;99908.56;335668;28;17810;-76
2023/08/21 00:43:52;;;;;;;2.30;1.60;;;;;;;25.31;74.83;99906.84;338941;28;4991;-76
2023/08/21 00:44:04;;;;;;;1.80;1.50;;;;;;;25.31;74.60;99904.19;336420;28;4605;-76
2023/08/21 00:44:16;;;;;;;1.80;1.45;;;;;;;25.31;74.41;99907.72;337699;28;4562;-76
2023/08/21 00:44:28;;;;;;;2.15;1.50;;;;;;;25.30;74.23;99905.19;338842;28;4628;-76
2023/08/21 00:44:40;;;;;;;2.25;1.50;;;;;;;25.28;74.26;99912.47;336372;28;4981;-76
2023/08/21 00:44:52;;;;;;;2.45;1.63;;;;;;;25.26;74.21;99901.13;339037;28;5632;-76
2023/08/21 00:45:08;;;;;;;2.80;1.90;;;;;;;25.24;74.69;99905.75;338092;28;4564;-76
2023/08/21 00:45:20;;;;;;;2.67;1.80;;;;;;;25.21;74.69;99903.31;336853;28;15826;-76
2023/08/21 00:45:32;;;;;;;1.83;1.42;;;;;;;25.22;74.22;99905.03;338816;28;4553;-76
2023/08/21 00:45:46;;;;;;;1.65;1.20;;;;;;;25.22;74.20;99908.53;338826;28;4565;-76
2023/08/21 00:45:58;;;;;;;2.03;1.42;;;;;;;25.20;74.51;99906.97;336270;28;18050;-76
2023/08/21 00:46:10;;;;;;;2.25;1.70;;;;;;;25.19;74.44;99908.75;333806;28;4859;-76
2023/08/21 00:46:22;;;;;;;2.13;1.65;;;;;;;25.18;74.15;99906.28;336441;28;17648;-76
2023/08/21 00:46:35;;;;;;;1.90;1.63;;;;;;;25.17;74.41;99908.06;338969;28;4813;-76
2023/08/21 00:46:47;;;;;;;2.20;1.80;;;;;;;25.15;74.15;99898.56;336228;28;18367;-76
2023/08/21 00:47:00;;;;;;;2.20;1.90;;;;;;;25.12;74.25;99903.16;338958;28;5214;-76
2023/08/21 00:47:12;;;;;;;2.03;1.60;;;;;;;25.11;74.32;99904.16;336177;28;18370;-76
2023/08/21 00:47:24;;;;;;;2.25;1.40;;;;;;;25.11;74.62;99901.50;338711;28;4656;-76
2023/08/21 00:47:37;;;;;;;2.67;1.45;;;;;;;25.10;74.60;99905.13;335950;28;17382;-76
2023/08/21 00:47:49;;;;;;;2.50;1.45;;;;;;;25.09;74.71;99906.13;339024;28;5367;-76
2023/08/21 00:48:01;;;;;;;1.60;1.33;;;;;;;25.08;74.63;99904.41;336192;28;19145;-76
2023/08/21 00:48:14;;;;;;;1.50;1.38;;;;;;;25.09;74.80;99903.47;339059;28;5573;-76
2023/08/21 00:48:26;;;;;;;1.63;1.48;;;;;;;25.08;74.51;99907.09;336353;28;19182;-76
2023/08/21 00:48:38;;;;;;;1.75;1.45;;;;;;;25.07;74.74;99910.72;339004;28;5362;-76
2023/08/21 00:48:51;;;;;;;2.13;1.48;;;;;;;25.04;74.78;99904.84;338554;28;12016;-76
2023/08/21 00:49:04;;;;;;;2.17;1.60;;;;;;;25.01;74.91;99908.63;330747;28;18270;-76
2023/08/21 00:49:16;;;;;;;2.15;1.73;;;;;;;24.97;75.05;99909.88;338705;28;4563;-76
2023/08/21 00:49:29;;;;;;;2.08;1.70;;;;;;;24.94;75.07;99904.81;335343;28;17997;-76
2023/08/21 00:49:42;;;;;;;2.05;1.63;;;;;;;24.93;75.81;99903.13;338996;28;4663;-76
2023/08/21 00:49:54;;;;;;;1.90;1.50;;;;;;;24.91;75.94;99905.06;336303;28;17754;-76
2023/08/21 00:50:07;;;;;;;3.60;1.58;;;;;;;24.90;76.33;99901.59;338953;28;4857;-76
2023/08/21 00:50:19;;;;;;;3.80;1.65;;;;;;;24.92;75.68;99902.28;336103;28;18858;-76
2023/08/21 00:50:31;;;;;;;3.75;1.70;;;;;;;24.91;75.82;99911.25;338812;28;5376;-76
2023/08/21 00:50:44;;;;;;;2.55;1.80;;;;;;;24.92;76.18;99909.44;335841;28;18148;-76
2023/08/21 00:50:57;;;;;;;3.10;1.80;;;;;;;24.94;75.88;99910.13;339024;28;5487;-76
2023/08/21 00:51:10;;;;;;;3.05;1.77;;;;;;;24.96;75.54;99907.34;336419;28;18082;-76
2023/08/21 00:51:23;;;;;;;2.55;1.73;;;;;;;24.96;75.76;99902.84;336440;28;18369;-76
2023/08/21 00:51:35;;;;;;;2.15;1.70;;;;;;;24.96;75.49;99902.84;338785;28;4659;-76
2023/08/21 00:51:49;;;;;;;1.95;1.45;;;;;;;24.97;75.46;99901.03;338356;28;18183;-76
2023/08/21 00:52:02;;;;;;;2.40;1.58;;;;;;;24.95;75.71;99903.00;331794;28;17802;-76
2023/08/21 00:52:15;;;;;;;2.30;1.60;;;;;;;24.98;75.64;99905.38;336344;28;18137;-76
2023/08/21 00:52:28;;;;;;;1.83;1.50;;;;;;;24.98;75.75;99900.91;339309;28;4711;-76
2023/08/21 00:52:42;;;;;;;2.38;1.48;;;;;;;24.97;75.58;99898.38;333282;28;17976;-76
2023/08/21 00:52:54;;;;;;;2.83;1.63;;;;;;;24.98;75.78;99913.38;336524;28;17995;-76
2023/08/21 00:53:07;;;;;;;3.05;1.75;;;;;;;24.93;75.71;99905.78;339060;28;4731;-76
2023/08/21 00:53:19;;;;;;;2.97;1.80;;;;;;;24.93;75.37;99903.13;331694;28;18507;-76
2023/08/21 00:53:31;;;;;;;2.20;1.60;;;;;;;24.93;75.52;99903.13;339416;28;4647;-76
2023/08/21 00:53:44;;;;;;;2.35;1.70;;;;;;;24.92;75.88;99904.94;336748;28;16291;-76
2023/08/21 00:53:56;;;;;;;3.30;1.80;;;;;;;24.91;76.05;99905.06;338580;28;5562;-76
2023/08/21 00:54:09;;;;;;;3.92;1.65;;;;;;;24.88;75.87;99897.38;336618;28;4614;-76
2023/08/21 00:54:22;;;;;;;3.88;1.75;;;;;;;24.88;75.73;99905.34;339364;28;5405;-76
2023/08/21 00:54:34;;;;;;;3.17;1.80;;;;;;;24.86;75.79;99897.50;336376;28;18447;-76
2023/08/21 00:54:46;;;;;;;2.00;1.80;;;;;;;24.87;75.98;99901.00;339242;28;5587;-76
2023/08/21 00:54:58;;;;;;;2.00;1.80;;;;;;;24.86;76.07;99902.00;338744;28;8162;-76
2023/08/21 00:55:12;;;;;;;2.08;1.75;;;;;;;24.86;76.04;99902.00;336264;28;18557;-76
2023/08/21 00:55:24;;;;;;;2.40;1.80;;;;;;;24.85;76.13;99900.31;336284;28;17999;-76
2023/08/21 00:55:37;;;;;;;2.30;1.65;;;;;;;24.84;76.87;99903.94;339106;28;4546;-76
2023/08/21 00:55:49;;;;;;;1.80;1.40;;;;;;;24.86;76.72;99908.16;332339;28;4614;-76
2023/08/21 00:56:02;;;;;;;1.50;1.40;;;;;;;24.87;76.65;99901.00;339145;28;5403;-76
2023/08/21 00:56:15;;;;;;;1.80;1.45;;;;;;;24.90;76.35;99900.75;338608;28;19321;-76
2023/08/21 00:56:27;;;;;;;2.90;1.58;;;;;;;24.90;76.37;99900.75;336294;28;18877;-76
2023/08/21 00:56:39;;;;;;;2.67;1.50;;;;;;;24.91;76.41;99900.63;336405;28;18207;-76
2023/08/21 00:56:52;;;;;;;1.88;1.38;;;;;;;24.93;76.09;99897.81;339312;28;5308;-76
2023/08/21 00:57:04;;;;;;;1.70;1.45;;;;;;;24.93;76.19;99897.81;336655;28;16326;-76
2023/08/21 00:57:17;;;;;;;1.70;1.60;;;;;;;24.93;76.22;99892.47;339556;28;5024;-76
2023/08/21 00:57:29;;;;;;;1.73;1.60;;;;;;;24.94;76.24;99899.50;335373;28;18110;-76
2023/08/21 00:57:41;;;;;;;2.10;1.60;;;;;;;24.94;76.17;99901.31;338451;28;4662;-76
2023/08/21 00:57:54;;;;;;;3.22;1.60;;;;;;;24.93;76.03;99897.81;333827;28;4811;-76
2023/08/21 00:58:10;;;;;;;4.22;1.70;;;;;;;24.93;76.40;99897.81;336277;28;18419;-75
2023/08/21 00:58:22;;;;;;;4.25;1.85;;;;;;;24.92;76.17;99896.13;336351;28;17885;-76
2023/08/21 00:58:34;;;;;;;3.22;1.75;;;;;;;24.91;76.52;99899.75;338832;28;5460;-76
2023/08/21 00:58:46;;;;;;;2.78;1.75;;;;;;;24.90;76.43;99898.09;335918;28;18877;-76
2023/08/21 00:58:58;;;;;;;2.03;1.70;;;;;;;24.89;76.29;99905.22;339012;28;4649;-76
2023/08/21 00:59:12;;;;;;;2.20;1.67;;;;;;;24.90;76.33;99898.09;331126;28;18559;-76